Ghardaia, Algeria

55°F / 13°C
Low Drifting Sand
Humidity: 36%
Dew Point: 28°F / -2°C
Wind: NE at 18 mph / 30 km/h
Pressure: 30.06 in / 1018 hPa (Falling)
Visibility: 3.1 miles / 5.0 kilometers
Clouds: (FEW) : 4600 ft / 1402 m
Overcast (OVC) : 9000 ft / 2743 m
Yesterday's Maximum: 59°F / 15°C
Yesterday's Minimum: 39°F / 4°C approx.
Yesterday's Heating Degree Days: 16 approx.
UV: 0 out of 16
Sunrise:7:24 AM CET
Sunset:6:34 PM CET
Moon Rise:6:33 PM CET
Moon Set:7:21 AM CET
Moon Phase Full Moon
NOAA Weather Radio
No local feed.
SPECI DAUG 192131Z 04016KT 5000 DRSA FEW046 OVC090 13/M02 Q1018
As of: 10:31 PM CET on February 19, 2019
Observed at: Ghardaia, Algeria

View Station's History

Local Satellite

Current Satellite Forecast
Region Default Local
No Yes

View Full Screen WunderMap

Forecast

Current Satellite Forecast

Features

Weather Apps

WunderRadio

Weather Underground Apps
Check out our wide variety of mobile and setup applications.

Weather Underground Applications

Top of Page

© Copyright 2019
The Weather Company, LLC